aviador You're here:

LFBH Decoded Metar

LA ROCHELLE/LALE in FRANCE
Report Time2017-08-22 08:30:00
UTC Time2017-08-22 09:04:55
Flight Rules vfr VFR
Wind090° at 05 kt
W.Decomp.*RWY 09: 5.0 kt HW 0.1 kt RCW
W.Rank090° ranks 27
Current wind is below 090° avg. (7.1)
Visibility9999 m
Phenomena:N/A
Clouds:N/A
Expected CloudBase > 4,800 ft AGL from Temp-Dew spread
CeilingNone
Temp26°C (ISA +11)
Dew Point14°C (48% RH)
AAT25.5°C
QNH1015 hPa
Density Alt1,460 ft
Elevation33 ft
Report Wrong Elevation
Raw Report
LFBH 220830Z AUTO 09005KT 060V130 CAVOK 26/14 Q1015 NOSIG=

Extra information for LFBH:More info

Metar Taf Metar & Taf Last 4 Metars F.Rules Stats Wind Profile Meteogram Temp Stats Airport Information Weather charts Add Link Nearby VenuesMetar ALERT Operation Metar Decoded Social comments